METAR Data

Data at: 1312 UTC 25 Sep 2023

METAR for:KEEN (Keene/Hopkins Arpt, NH, US)
Text:KEEN 251256Z AUTO 04007KT 10SM -RA OVC018 16/13 A3017 RMK AO2 RAB03 SLP220 P0000 T01560128 $
Temperature: 15.6°C ( 60°F)
Dewpoint: 12.8°C ( 55°F) [RH = 83%]
Pressure (altimeter):30.17 inches Hg (1021.8 mb) [Sea level pressure: 1022.0 mb]
Winds:from the NE (40 degrees) at 8 MPH (7 knots; 3.6 m/s)
Visibility:10 or more sm (16+ km)
Ceiling:1800 feet AGL
Clouds: overcast cloud deck at 1800 feet AGL
Weather:-RA (light rain)
QC Flag:automated observation with no human augmentation; SOME DATA ABOVE MAY BE INACCURATE!!!"$" is an indication the sensor requires maintenance.